Time,TemperatureF,DewpointF,PressureIn,WindDirection,WindDirectionDegrees,WindSpeedMPH,WindSpeedGustMPH,Humidity,HourlyPrecipIn,Conditions,Clouds,dailyrainin,SolarRadiationWatts/m^2,SoftwareType,DateUTC
2013-02-25 00:31:00,20.0,11.0,-100.00,SSE,149,9.0,13.0,66,0.00,,,0.24,0.000000,,2013-02-25 07:31:00,
2013-02-25 00:41:00,20.0,11.0,-100.00,SSE,149,9.0,13.0,66,0.00,,,0.24,0.000000,,2013-02-25 07:41:00,
2013-02-25 00:51:00,20.0,11.0,-100.00,SSE,149,9.0,13.0,66,0.00,,,0.24,0.000000,,2013-02-25 07:51:00,
2013-02-25 01:31:00,19.0,10.0,-100.00,SSE,162,11.0,14.0,66,0.00,,,0.24,0.000000,,2013-02-25 08:31:00,
2013-02-25 01:41:00,19.0,10.0,-100.00,SSE,162,11.0,14.0,66,0.00,,,0.24,0.000000,,2013-02-25 08:41:00,
2013-02-25 01:52:00,19.0,10.0,-100.00,SSE,162,11.0,14.0,66,0.00,,,0.24,0.000000,,2013-02-25 08:52:00,
2013-02-25 02:31:00,18.0,8.0,-100.00,SE,136,12.0,15.0,65,0.00,,,0.24,0.000000,,2013-02-25 09:31:00,
2013-02-25 02:41:00,18.0,8.0,-100.00,SE,136,12.0,15.0,65,0.00,,,0.24,0.000000,,2013-02-25 09:41:00,
2013-02-25 02:51:00,18.0,8.0,-100.00,SE,136,12.0,15.0,65,0.00,,,0.24,0.000000,,2013-02-25 09:51:00,
2013-02-25 03:21:00,19.0,9.0,-100.00,SE,138,11.0,14.0,64,0.00,,,0.24,0.000000,,2013-02-25 10:21:00,
2013-02-25 03:31:00,19.0,9.0,-100.00,SE,138,11.0,14.0,64,0.00,,,0.24,0.000000,,2013-02-25 10:31:00,
2013-02-25 03:41:00,19.0,9.0,-100.00,SE,138,11.0,14.0,64,0.00,,,0.24,0.000000,,2013-02-25 10:41:00,
2013-02-25 03:52:00,19.0,9.0,-100.00,SE,138,11.0,14.0,64,0.00,,,0.24,0.000000,,2013-02-25 10:52:00,
2013-02-25 04:21:00,17.0,7.0,-100.00,SE,146,11.0,15.0,64,0.00,,,0.24,0.000000,,2013-02-25 11:21:00,
2013-02-25 04:32:00,17.0,7.0,-100.00,SE,146,11.0,15.0,64,0.00,,,0.24,0.000000,,2013-02-25 11:32:00,
2013-02-25 04:42:00,17.0,7.0,-100.00,SE,146,11.0,15.0,64,0.00,,,0.24,0.000000,,2013-02-25 11:42:00,
2013-02-25 04:52:00,17.0,7.0,-100.00,SE,146,11.0,15.0,64,0.00,,,0.24,0.000000,,2013-02-25 11:52:00,
2013-02-25 05:21:00,17.0,8.0,-100.00,SE,136,9.0,14.0,66,0.00,,,0.24,0.000000,,2013-02-25 12:21:00,
2013-02-25 05:32:00,17.0,8.0,-100.00,SE,136,9.0,14.0,66,0.00,,,0.24,0.000000,,2013-02-25 12:32:00,
2013-02-25 05:42:00,17.0,8.0,-100.00,SE,136,9.0,14.0,66,0.00,,,0.24,0.000000,,2013-02-25 12:42:00,
2013-02-25 05:53:00,17.0,8.0,-100.00,SE,136,9.0,14.0,66,0.00,,,0.24,0.000000,,2013-02-25 12:53:00,
2013-02-25 06:22:00,17.0,7.0,-100.00,SE,130,10.0,12.0,65,0.00,,,0.24,0.000000,,2013-02-25 13:22:00,
2013-02-25 06:32:00,17.0,7.0,-100.00,SE,130,10.0,12.0,65,0.00,,,0.24,0.000000,,2013-02-25 13:32:00,
2013-02-25 06:42:00,17.0,7.0,-100.00,SE,130,10.0,12.0,65,0.00,,,0.24,0.000000,,2013-02-25 13:42:00,
2013-02-25 06:51:00,17.0,7.0,-100.00,SE,130,10.0,12.0,65,0.00,,,0.24,0.000000,,2013-02-25 13:51:00,
2013-02-25 07:31:00,16.0,6.0,-100.00,SE,146,8.0,12.0,65,0.00,,,0.24,1.000000,,2013-02-25 14:31:00,
2013-02-25 07:42:00,16.0,6.0,-100.00,SE,146,8.0,12.0,65,0.00,,,0.24,1.000000,,2013-02-25 14:42:00,
2013-02-25 07:52:00,16.0,6.0,-100.00,SE,146,8.0,12.0,65,0.00,,,0.24,1.000000,,2013-02-25 14:52:00,
2013-02-25 08:21:00,18.0,9.0,-100.00,SSE,156,5.0,10.0,66,0.00,,,0.24,65.000000,,2013-02-25 15:21:00,
2013-02-25 08:32:00,18.0,9.0,-100.00,SSE,156,5.0,10.0,66,0.00,,,0.24,65.000000,,2013-02-25 15:32:00,
2013-02-25 08:41:00,18.0,9.0,-100.00,SSE,156,5.0,10.0,66,0.00,,,0.24,65.000000,,2013-02-25 15:41:00,
2013-02-25 08:51:00,18.0,9.0,-100.00,SSE,156,5.0,10.0,66,0.00,,,0.24,65.000000,,2013-02-25 15:51:00,
2013-02-25 09:31:00,23.0,10.0,-100.00,SSE,149,8.0,11.0,57,0.00,,,-99.99,271.000000,,2013-02-25 16:31:00,
2013-02-25 09:42:00,23.0,10.0,-100.00,SSE,149,8.0,11.0,57,0.00,,,-99.99,271.000000,,2013-02-25 16:42:00,
2013-02-25 09:51:00,23.0,10.0,-100.00,SSE,149,8.0,11.0,57,0.00,,,-99.99,271.000000,,2013-02-25 16:51:00,
2013-02-25 10:21:00,29.0,15.0,-100.00,SE,136,9.0,11.0,55,0.00,,,0.13,401.000000,,2013-02-25 17:21:00,
2013-02-25 10:31:00,29.0,15.0,-100.00,SE,136,9.0,11.0,55,0.00,,,0.13,401.000000,,2013-02-25 17:31:00,
2013-02-25 10:41:00,29.0,15.0,-100.00,SE,136,9.0,11.0,55,0.00,,,0.13,401.000000,,2013-02-25 17:41:00,
2013-02-25 10:52:00,29.0,15.0,-100.00,SE,136,9.0,11.0,55,0.00,,,0.13,401.000000,,2013-02-25 17:52:00,
2013-02-25 11:32:00,34.0,16.0,-100.00,SSE,155,8.0,11.0,48,0.00,,,0.04,527.000000,,2013-02-25 18:32:00,
2013-02-25 11:41:00,34.0,16.0,-100.00,SSE,155,8.0,11.0,48,0.00,,,0.04,527.000000,,2013-02-25 18:41:00,
2013-02-25 11:51:00,34.0,16.0,-100.00,SSE,155,8.0,11.0,48,0.00,,,0.04,527.000000,,2013-02-25 18:51:00,
2013-02-25 12:31:00,37.0,18.0,-100.00,SE,143,8.0,10.0,46,0.00,,,0.02,593.000000,,2013-02-25 19:31:00,
2013-02-25 12:41:00,37.0,18.0,-100.00,SE,143,8.0,10.0,46,0.00,,,0.02,593.000000,,2013-02-25 19:41:00,
2013-02-25 12:52:00,37.0,18.0,-100.00,SE,143,8.0,10.0,46,0.00,,,0.02,593.000000,,2013-02-25 19:52:00,
2013-02-25 13:21:00,43.0,22.0,-100.00,SE,138,4.0,10.0,43,0.00,,,0.00,567.000000,,2013-02-25 20:21:00,
2013-02-25 13:31:00,43.0,22.0,-100.00,SE,138,4.0,10.0,43,0.00,,,0.00,567.000000,,2013-02-25 20:31:00,
2013-02-25 13:41:00,43.0,22.0,-100.00,SE,138,4.0,10.0,43,0.00,,,0.00,567.000000,,2013-02-25 20:41:00,
2013-02-25 13:52:00,43.0,22.0,-100.00,SE,138,4.0,10.0,43,0.00,,,0.00,567.000000,,2013-02-25 20:52:00,
2013-02-25 14:31:00,46.0,24.0,-100.00,SSE,164,4.0,7.0,41,0.00,,,0.00,583.000000,,2013-02-25 21:31:00,
2013-02-25 14:42:00,46.0,24.0,-100.00,SSE,164,4.0,7.0,41,0.00,,,0.00,583.000000,,2013-02-25 21:42:00,
2013-02-25 14:51:00,46.0,24.0,-100.00,SSE,164,4.0,7.0,41,0.00,,,0.00,583.000000,,2013-02-25 21:51:00,
2013-02-25 15:32:00,43.0,19.0,-100.00,SE,135,8.0,9.0,38,0.00,,,0.00,445.000000,,2013-02-25 22:32:00,
2013-02-25 15:41:00,43.0,19.0,-100.00,SE,135,8.0,9.0,38,0.00,,,0.00,445.000000,,2013-02-25 22:41:00,
2013-02-25 15:51:00,43.0,19.0,-100.00,SE,135,8.0,9.0,38,0.00,,,0.00,445.000000,,2013-02-25 22:51:00,
2013-02-25 16:22:00,41.0,20.0,-100.00,SSE,163,6.0,8.0,43,0.00,,,0.00,281.000000,,2013-02-25 23:22:00,
2013-02-25 16:31:00,41.0,20.0,-100.00,SSE,163,6.0,8.0,43,0.00,,,0.00,281.000000,,2013-02-25 23:31:00,
2013-02-25 16:41:00,41.0,20.0,-100.00,SSE,163,6.0,8.0,43,0.00,,,0.00,281.000000,,2013-02-25 23:41:00,
2013-02-25 16:52:00,41.0,20.0,-100.00,SSE,163,6.0,8.0,43,0.00,,,0.00,281.000000,,2013-02-25 23:52:00,
2013-02-25 17:21:00,38.0,20.0,-100.00,SSE,161,4.0,6.0,48,0.00,,,-99.99,129.000000,,2013-02-26 00:21:00,
2013-02-25 17:32:00,38.0,20.0,-100.00,SSE,161,4.0,6.0,48,0.00,,,-99.99,129.000000,,2013-02-26 00:32:00,
2013-02-25 17:41:00,38.0,20.0,-100.00,SSE,161,4.0,6.0,48,0.00,,,-99.99,129.000000,,2013-02-26 00:41:00,
2013-02-25 17:51:00,38.0,20.0,-100.00,SSE,161,4.0,6.0,48,0.00,,,-99.99,129.000000,,2013-02-26 00:51:00,
2013-02-25 18:31:00,34.0,17.0,-100.00,SSE,167,7.0,9.0,49,0.00,,,0.00,26.000000,,2013-02-26 01:31:00,
2013-02-25 18:41:00,34.0,17.0,-100.00,SSE,167,7.0,9.0,49,0.00,,,0.00,26.000000,,2013-02-26 01:41:00,
2013-02-25 18:51:00,34.0,17.0,-100.00,SSE,167,7.0,9.0,49,0.00,,,0.00,26.000000,,2013-02-26 01:51:00,
2013-02-25 19:32:00,31.0,22.0,-100.00,SE,144,5.0,7.0,68,0.00,,,0.00,0.000000,,2013-02-26 02:32:00,
2013-02-25 19:41:00,31.0,22.0,-100.00,SE,144,5.0,7.0,68,0.00,,,0.00,0.000000,,2013-02-26 02:41:00,
2013-02-25 19:52:00,31.0,22.0,-100.00,SE,144,5.0,7.0,68,0.00,,,0.00,0.000000,,2013-02-26 02:52:00,
2013-02-25 20:21:00,32.0,22.0,-100.00,ESE,113,5.0,7.0,65,0.00,,,0.00,0.000000,,2013-02-26 03:21:00,
2013-02-25 20:31:00,32.0,22.0,-100.00,ESE,113,5.0,7.0,65,0.00,,,0.00,0.000000,,2013-02-26 03:31:00,
2013-02-25 20:41:00,32.0,22.0,-100.00,ESE,113,5.0,7.0,65,0.00,,,0.00,0.000000,,2013-02-26 03:41:00,
2013-02-25 20:52:00,32.0,22.0,-100.00,ESE,113,5.0,7.0,65,0.00,,,0.00,0.000000,,2013-02-26 03:52:00,
2013-02-25 21:32:00,35.0,23.0,-100.00,WNW,301,5.0,9.0,61,0.00,,,0.00,0.000000,,2013-02-26 04:32:00,
2013-02-25 21:42:00,35.0,23.0,-100.00,WNW,301,5.0,9.0,61,0.00,,,0.00,0.000000,,2013-02-26 04:42:00,
2013-02-25 21:51:00,35.0,23.0,-100.00,WNW,301,5.0,9.0,61,0.00,,,0.00,0.000000,,2013-02-26 04:51:00,
2013-02-25 22:31:00,34.0,22.0,-100.00,NNW,338,5.0,12.0,60,0.00,,,0.00,0.000000,,2013-02-26 05:31:00,
2013-02-25 22:42:00,34.0,22.0,-100.00,NNW,338,5.0,12.0,60,0.00,,,0.00,0.000000,,2013-02-26 05:42:00,
2013-02-25 22:52:00,34.0,22.0,-100.00,NNW,338,5.0,12.0,60,0.00,,,0.00,0.000000,,2013-02-26 05:52:00,
2013-02-25 23:31:00,36.0,21.0,-100.00,WNW,301,6.0,15.0,55,0.00,,,0.00,0.000000,,2013-02-26 06:31:00,
2013-02-25 23:41:00,36.0,21.0,-100.00,WNW,301,6.0,15.0,55,0.00,,,0.00,0.000000,,2013-02-26 06:41:00,
2013-02-25 23:51:00,36.0,21.0,-100.00,WNW,301,6.0,15.0,55,0.00,,,0.00,0.000000,,2013-02-26 06:51:00,